Home > Products > Valid Products > TAF

000
FTUS41 KAKQ 270534
TAFECG
TAF
KECG 270534Z 2706/2806 26003KT P6SM FEW100
     FM271300 31007KT P6SM SCT250
     FM271800 33010G16KT P6SM SCT060
     FM272300 33007KT P6SM SCT100=



000
FTUS41 KAKQ 270534
TAFPHF
TAF
KPHF 270534Z 2706/2806 26002KT P6SM FEW100
     FM271300 33006KT P6SM SCT250
     FM271800 33009G15KT P6SM SCT060
     FM272300 33007KT P6SM SCT100=



000
FTUS41 KAKQ 270534
TAFORF
TAF
KORF 270534Z 2706/2806 26003KT P6SM FEW100
     FM271300 34008KT P6SM SCT250
     FM271800 36010G16KT P6SM SCT060
     FM272300 34008KT P6SM SCT100=



000
FTUS41 KAKQ 270534
TAFRIC
TAF
KRIC 270534Z 2706/2806 27003KT P6SM FEW100
     FM271300 34008KT P6SM SCT250
     FM271700 32012G19KT P6SM BKN050
     FM272300 33008KT P6SM BKN080=



000
FTUS41 KAKQ 270534
TAFSBY
TAF
KSBY 270534Z 2706/2806 33002KT P6SM FEW100
     FM271300 33008KT P6SM SCT250
     FM271700 31011G18KT P6SM BKN050
     FM272300 31008KT P6SM BKN080=



000
FTUS41 KAKQ 262343
TAFORF
TAF
KORF 262343Z 2700/2724 02005KT P6SM SCT250
     FM270300 VRB03KT P6SM SCT250
     FM270900 34006KT P6SM SCT100
     FM271900 34010G15KT P6SM SCT060=



000
FTUS41 KAKQ 262343
TAFORF
TAF
KORF 262343Z 2700/2724 02005KT P6SM SCT250
     FM270300 VRB03KT P6SM SCT250
     FM270900 34006KT P6SM SCT100
     FM271900 34010G15KT P6SM SCT060=



000
FTUS41 KAKQ 262343
TAFRIC
TAF
KRIC 262343Z 2700/2724 00000KT P6SM SCT250
     FM270600 33004KT P6SM BKN100
     FM271400 34008KT P6SM SCT250
     FM271700 32013G19KT P6SM BKN100=



000
FTUS41 KAKQ 262343
TAFSBY
TAF
KSBY 262343Z 2700/2724 00000KT P6SM SCT250
     FM271000 34006KT P6SM BKN100
     FM271500 31010G16KT P6SM SCT250=



000
FTUS41 KAKQ 262343
TAFPHF
TAF
KPHF 262343Z 2700/2724 00000KT P6SM SCT250
     FM270900 33005KT P6SM BKN100
     FM271500 34008KT P6SM SCT250
     FM271900 32010G15KT P6SM SCT070=



000
FTUS41 KAKQ 262343
TAFECG
TAF
KECG 262343Z 2700/2724 35003KT P6SM SCT080
     FM270200 33003KT P6SM SCT250
     FM271400 29008KT P6SM SCT250
     FM271800 32010G15KT P6SM BKN100=



000
FTUS41 KAKQ 262343
TAFECG
TAF
KECG 262343Z 2700/2724 35003KT P6SM SCT080
     FM270200 33003KT P6SM SCT250
     FM271400 29008KT P6SM SCT250
     FM271800 32010G15KT P6SM BKN100=



000
FTUS41 KAKQ 262343
TAFPHF
TAF
KPHF 262343Z 2700/2724 00000KT P6SM SCT250
     FM270900 33005KT P6SM BKN100
     FM271500 34008KT P6SM SCT250
     FM271900 32010G15KT P6SM SCT070=



000
FTUS41 KAKQ 262343
TAFSBY
TAF
KSBY 262343Z 2700/2724 00000KT P6SM SCT250
     FM271000 34006KT P6SM BKN100
     FM271500 31010G16KT P6SM SCT250=



000
FTUS41 KAKQ 262343
TAFRIC
TAF
KRIC 262343Z 2700/2724 00000KT P6SM SCT250
     FM270600 33004KT P6SM BKN100
     FM271400 34008KT P6SM SCT250
     FM271700 32013G19KT P6SM BKN100=



000
FTUS41 KAKQ 262147 AAB
TAFECG
TAF AMD
KECG 262147Z 2622/2718 01010KT P6SM SCT025 OVC040
     FM262300 35003KT P6SM BKN080
     FM270200 33003KT P6SM SCT250
     FM271400 29008KT P6SM SCT250=



000
FTUS41 KAKQ 262147 AAB
TAFECG
TAF AMD
KECG 262147Z 2622/2718 01010KT P6SM SCT025 OVC040
     FM262300 35003KT P6SM BKN080
     FM270200 33003KT P6SM SCT250
     FM271400 29008KT P6SM SCT250=



000
FTUS41 KAKQ 261959 AAA
TAFORF
TAF AMD
KORF 261959Z 2620/2718 02008KT P6SM SCT040
     FM262100 03008KT P6SM BKN050
     FM262300 02005KT P6SM SCT250
     FM270300 VRB03KT P6SM SCT250
     FM270900 34006KT P6SM BKN100=



000
FTUS41 KAKQ 261827 AAA
TAFECG
TAF AMD
KECG 261827Z 2618/2718 01013KT P6SM OVC015
     FM262100 01010KT P6SM BKN025 OVC060
     FM262300 35003KT P6SM BKN080
     FM270200 33003KT P6SM SCT250
     FM271400 29008KT P6SM SCT250=



000
FTUS41 KAKQ 261825 AAA
TAFRIC
TAF AMD
KRIC 261825Z 2618/2718 02007KT P6SM SCT040 BKN070
     FM262300 00000KT P6SM SCT250
     FM270600 33004KT P6SM BKN100
     FM271400 34008KT P6SM SCT250=



000
FTUS41 KAKQ 261740
TAFECG
TAF
KECG 261740Z 2618/2718 01013KT P6SM OVC015
      TEMPO 2618/2620 BKN009
     FM262100 01010KT P6SM BKN025 OVC060
     FM262300 35003KT P6SM SCT250
     FM271400 29008KT P6SM SCT250=



000
FTUS41 KAKQ 261740
TAFSBY
TAF
KSBY 261740Z 2618/2718 36005KT P6SM BKN050
     FM262300 00000KT P6SM SCT250
     FM271000 34006KT P6SM BKN100
     FM271500 31010G16KT P6SM SCT250=



000
FTUS41 KAKQ 261740
TAFPHF
TAF
KPHF 261740Z 2618/2718 02009KT P6SM SCT025 BKN070
      TEMPO 2618/2620 BKN025
     FM262100 03006KT P6SM BKN050
     FM262300 00000KT P6SM SCT250
     FM270900 33005KT P6SM BKN100
     FM271500 34008KT P6SM SCT250=



000
FTUS41 KAKQ 261740
TAFECG
TAF
KECG 261740Z 2618/2718 01013KT P6SM OVC015
      TEMPO 2618/2620 BKN009
     FM262100 01010KT P6SM BKN025 OVC060
     FM262300 35003KT P6SM SCT250
     FM271400 29008KT P6SM SCT250=



000
FTUS41 KAKQ 261740
TAFRIC
TAF
KRIC 261740Z 2618/2718 02005KT P6SM SCT020 BKN070
      TEMPO 2618/2620 BKN025
     FM270000 00000KT P6SM SCT250
     FM270600 33004KT P6SM BKN100
     FM271400 34008KT P6SM SCT250=



000
FTUS41 KAKQ 261740
TAFORF
TAF
KORF 261740Z 2618/2718 02010KT P6SM BKN025 OVC070
     FM262100 03008KT P6SM BKN050
     FM262300 02005KT P6SM SCT250
     FM270300 VRB03KT P6SM SCT250
     FM270900 34006KT P6SM BKN100=



000
FTUS41 KAKQ 261740
TAFPHF
TAF
KPHF 261740Z 2618/2718 02009KT P6SM SCT025 BKN070
      TEMPO 2618/2620 BKN025
     FM262100 03006KT P6SM BKN050
     FM262300 00000KT P6SM SCT250
     FM270900 33005KT P6SM BKN100
     FM271500 34008KT P6SM SCT250=



000
FTUS41 KAKQ 261740
TAFSBY
TAF
KSBY 261740Z 2618/2718 36005KT P6SM BKN050
     FM262300 00000KT P6SM SCT250
     FM271000 34006KT P6SM BKN100
     FM271500 31010G16KT P6SM SCT250=



000
FTUS41 KAKQ 261740
TAFORF
TAF
KORF 261740Z 2618/2718 02010KT P6SM BKN025 OVC070
     FM262100 03008KT P6SM BKN050
     FM262300 02005KT P6SM SCT250
     FM270300 VRB03KT P6SM SCT250
     FM270900 34006KT P6SM BKN100=



000
FTUS41 KAKQ 261740
TAFRIC
TAF
KRIC 261740Z 2618/2718 02005KT P6SM SCT020 BKN070
      TEMPO 2618/2620 BKN025
     FM270000 00000KT P6SM SCT250
     FM270600 33004KT P6SM BKN100
     FM271400 34008KT P6SM SCT250=



000
FTUS41 KAKQ 261613 AAB
TAFPHF
TAF AMD
KPHF 261613Z 2616/2712 05009KT P6SM BKN025 OVC070
     FM262000 03006KT P6SM BKN050
     FM262300 01002KT P6SM SCT250=



000
FTUS41 KAKQ 261610 AAB
TAFORF
TAF AMD
KORF 261610Z 2616/2712 02010KT P6SM BKN025 OVC070
     FM262000 03008KT P6SM BKN050
     FM262300 01004KT P6SM SCT250=



000
FTUS41 KAKQ 261605 AAA
TAFSBY
TAF AMD
KSBY 261605Z 2616/2712 36007KT P6SM BKN100
     FM262300 02002KT P6SM SCT250=



000
FTUS41 KAKQ 261602 AAB
TAFRIC
TAF AMD
KRIC 261602Z 2616/2712 02010KT P6SM BKN015 OVC025
      TEMPO 2617/2619 SCT020 BKN070
     FM261900 01006KT P6SM BKN050
     FM270000 34002KT P6SM SCT250=



000
FTUS41 KAKQ 261510 AAA
TAFECG
TAF AMD
KECG 261510Z 2615/2712 36011KT P6SM OVC008
      TEMPO 2615/2618 OVC012
     FM261800 01010KT P6SM OVC015
     FM262300 01008KT P6SM BKN040
     FM270200 35005KT P6SM SCT250=



000
FTUS41 KAKQ 261510 AAA
TAFECG
TAF AMD
KECG 261510Z 2615/2712 36011KT P6SM OVC008
      TEMPO 2615/2618 OVC012
     FM261800 01010KT P6SM OVC015
     FM262300 01008KT P6SM BKN040
     FM270200 35005KT P6SM SCT250=



000
FTUS41 KAKQ 261440 AAA
TAFPHF
TAF AMD
KPHF 261440Z 2615/2712 05009KT P6SM BKN025 OVC040
      TEMPO 2615/2617 OVC015
     FM261800 03006KT P6SM BKN050
     FM270100 01002KT P6SM SCT250=



000
FTUS41 KAKQ 261440 AAA
TAFPHF
TAF AMD
KPHF 261440Z 2615/2712 05009KT P6SM BKN025 OVC040
      TEMPO 2615/2617 OVC015
     FM261800 03006KT P6SM BKN050
     FM270100 01002KT P6SM SCT250=



000
FTUS41 KAKQ 261405 AAA
TAFRIC
TAF AMD
KRIC 261405Z 2614/2712 02010KT P6SM BKN015 OVC025
      TEMPO 2614/2617 OVC008
     FM261900 01006KT P6SM BKN050
     FM270000 34002KT P6SM SCT250=



000
FTUS41 KAKQ 261319 AAA
TAFORF
TAF AMD
KORF 261319Z 2613/2712 04010KT P6SM -DZ BKN050 OVC080
      TEMPO 2613/2617 -RA OVC015
     FM261700 03010KT P6SM BKN025 OVC050
     FM262200 03008KT P6SM BKN050
     FM270200 01004KT P6SM SCT250=



000
FTUS41 KAKQ 261140
TAFORF
TAF
KORF 261140Z 2612/2712 05012KT P6SM -RA OVC008
      TEMPO 2612/2616 OVC015
     FM261800 03010KT P6SM OVC025
     FM262200 03008KT P6SM BKN050
     FM270200 01004KT P6SM SCT250=



000
FTUS41 KAKQ 261140
TAFSBY
TAF
KSBY 261140Z 2612/2712 36004KT P6SM -RA SCT015 OVC080
      TEMPO 2612/2613 4SM -RA BR
     FM261500 02008KT P6SM OVC050
     FM262000 01008KT P6SM BKN100
     FM262300 02002KT P6SM SCT250=



000
FTUS41 KAKQ 261140
TAFRIC
TAF
KRIC 261140Z 2612/2712 02010KT P6SM -RA BKN008 OVC030
      TEMPO 2612/2614 4SM -RA BR OVC004
     FM261600 02007KT P6SM OVC020
     FM262000 01006KT P6SM BKN050
     FM270000 34002KT P6SM SCT250=



000
FTUS41 KAKQ 261140
TAFPHF
TAF
KPHF 261140Z 2612/2712 05009KT P6SM -RA OVC015
      TEMPO 2612/2616 4SM -RA BR OVC007
     FM261600 04009KT P6SM OVC020
     FM261900 03006KT P6SM BKN050
     FM270100 01002KT P6SM SCT250=



000
FTUS41 KAKQ 261140
TAFPHF
TAF
KPHF 261140Z 2612/2712 05009KT P6SM -RA OVC015
      TEMPO 2612/2616 4SM -RA BR OVC007
     FM261600 04009KT P6SM OVC020
     FM261900 03006KT P6SM BKN050
     FM270100 01002KT P6SM SCT250=



000
FTUS41 KAKQ 261140
TAFRIC
TAF
KRIC 261140Z 2612/2712 02010KT P6SM -RA BKN008 OVC030
      TEMPO 2612/2614 4SM -RA BR OVC004
     FM261600 02007KT P6SM OVC020
     FM262000 01006KT P6SM BKN050
     FM270000 34002KT P6SM SCT250=



000
FTUS41 KAKQ 261140
TAFORF
TAF
KORF 261140Z 2612/2712 05012KT P6SM -RA OVC008
      TEMPO 2612/2616 OVC015
     FM261800 03010KT P6SM OVC025
     FM262200 03008KT P6SM BKN050
     FM270200 01004KT P6SM SCT250=



000
FTUS41 KAKQ 261140
TAFSBY
TAF
KSBY 261140Z 2612/2712 36004KT P6SM -RA SCT015 OVC080
      TEMPO 2612/2613 4SM -RA BR
     FM261500 02008KT P6SM OVC050
     FM262000 01008KT P6SM BKN100
     FM262300 02002KT P6SM SCT250=



000
FTUS41 KAKQ 261140
TAFECG
TAF
KECG 261140Z 2612/2712 02013KT P6SM -RA BKN007 OVC030
      TEMPO 2612/2614 5SM -RA BR OVC005
     FM261800 01013KT P6SM OVC015
     FM262300 01008KT P6SM BKN040
     FM270200 35005KT P6SM SCT250=



000
FTUS41 KAKQ 261140
TAFECG
TAF
KECG 261140Z 2612/2712 02013KT P6SM -RA BKN007 OVC030
      TEMPO 2612/2614 5SM -RA BR OVC005
     FM261800 01013KT P6SM OVC015
     FM262300 01008KT P6SM BKN040
     FM270200 35005KT P6SM SCT250=



000
FTUS41 KAKQ 260917 AAB
TAFRIC
TAF AMD
KRIC 260917Z 2609/2706 03007KT 5SM -RA BR OVC006
     FM261500 02007KT P6SM OVC010
     FM262000 01006KT P6SM OVC050
     FM270000 34002KT P6SM SCT250=



000
FTUS41 KAKQ 260548 RRA
TAFPHF
TAF
KPHF 260548Z 2606/2706 04006KT P6SM BKN007 OVC015
     FM260900 04007KT 5SM -RA BR OVC007
     FM261700 03008KT P6SM OVC015
     FM262100 03006KT P6SM BKN050
     FM270100 01002KT P6SM SCT250=



000
FTUS41 KAKQ 260548 RRA
TAFORF
TAF
KORF 260548Z 2606/2706 04012KT P6SM OVC007
     FM261000 04010KT 5SM -RA BR OVC007
     FM261800 03010KT P6SM OVC015
     FM262200 03008KT P6SM BKN050
     FM270200 01004KT P6SM SCT250=



000
FTUS41 KAKQ 260548 RRA
TAFECG
TAF
KECG 260548Z 2606/2706 03012KT 6SM -RA BR OVC005
     FM261100 02012KT 4SM -RA BR OVC005
     FM261800 01013KT P6SM OVC012
     FM262300 01008KT P6SM BKN040
     FM270200 35005KT P6SM SCT250=



000
FTUS41 KAKQ 260548 RRA
TAFSBY
TAF
KSBY 260548Z 2606/2706 36005KT P6SM SCT015 OVC050
     FM261000 36005KT P6SM -RA BKN015 OVC050
     FM261500 02008KT P6SM OVC050
     FM262000 01008KT P6SM OVC100
     FM262300 02002KT P6SM SCT250=



000
FTUS41 KAKQ 260548 RRA
TAFRIC
TAF
KRIC 260548Z 2606/2706 02006KT 5SM BR BKN005 OVC015
     FM260800 03006KT 3SM -RA BR OVC005
     FM261500 02007KT P6SM OVC010
     FM262000 01006KT P6SM OVC050
     FM270000 34002KT P6SM SCT250=



000
FTUS41 KAKQ 260458 AAA
TAFECG
TAF AMD
KECG 260458Z 2605/2624 02012KT 5SM -RA BR OVC005
     FM261000 02013KT 6SM -RA BR OVC008
     FM261500 02014KT P6SM OVC018
     FM262000 02012KT P6SM BKN025=



000
FTUS41 KAKQ 260458 AAA
TAFECG
TAF AMD
KECG 260458Z 2605/2624 02012KT 5SM -RA BR OVC005
     FM261000 02013KT 6SM -RA BR OVC008
     FM261500 02014KT P6SM OVC018
     FM262000 02012KT P6SM BKN025=



000
FTUS41 KAKQ 260456 AAA
TAFPHF
TAF AMD
KPHF 260456Z 2605/2624 05006KT 6SM BR BKN007 OVC015
     FM261400 04008KT P6SM OVC015
     FM261700 03010KT P6SM BKN040=



000
FTUS41 KAKQ 260456 AAA
TAFPHF
TAF AMD
KPHF 260456Z 2605/2624 05006KT 6SM BR BKN007 OVC015
     FM261400 04008KT P6SM OVC015
     FM261700 03010KT P6SM BKN040=



000
FTUS41 KAKQ 260454 AAA
TAFORF
TAF AMD
KORF 260454Z 2605/2624 04009KT 6SM -RA BR OVC007
     FM261000 05010KT 5SM -RA BR OVC005
     FM261500 03014KT P6SM OVC015
     FM261800 04014KT P6SM BKN040=



000
FTUS41 KAKQ 260452 AAA
TAFSBY
TAF AMD
KSBY 260452Z 2605/2624 02004KT 6SM -RA BR SCT012 OVC040
     FM261000 02007KT P6SM OVC050=



000
FTUS41 KAKQ 260449 AAA
TAFRIC
TAF AMD
KRIC 260449Z 2605/2624 02005KT 6SM BR BKN005 OVC015
     FM261300 02007KT P6SM OVC015
     FM261500 02008KT P6SM OVC040=



000
FTUS41 KAKQ 260449 AAA
TAFRIC
TAF AMD
KRIC 260449Z 2605/2624 02005KT 6SM BR BKN005 OVC015
     FM261300 02007KT P6SM OVC015
     FM261500 02008KT P6SM OVC040=



000
FTUS41 KAKQ 252326
TAFECG
TAF
KECG 252326Z 2600/2624 07008KT 4SM -RA BR OVC020
      TEMPO 2600/2603 3SM -RA OVC008
     FM260300 03007KT 4SM -RA OVC007
     FM261000 02013KT 5SM -RA BR OVC008
     FM261500 02014KT P6SM OVC018
     FM262000 02012KT P6SM BKN025=



000
FTUS41 KAKQ 252326
TAFORF
TAF
KORF 252326Z 2600/2624 09007KT 3SM -RA BR OVC006
     FM260200 07006KT 4SM -RA BR OVC005
     FM261000 05010KT 3SM -RA BR OVC005
     FM261500 03014KT P6SM OVC015
     FM261800 04014KT P6SM BKN040=



000
FTUS41 KAKQ 252326
TAFPHF
TAF
KPHF 252326Z 2600/2624 09007KT 3SM -RA BR OVC005
      TEMPO 2600/2601 2SM -RA BR
     FM261400 04008KT P6SM OVC015
     FM261700 03010KT P6SM BKN040=



000
FTUS41 KAKQ 252326
TAFSBY
TAF
KSBY 252326Z 2600/2624 16003KT 4SM -RA BR SCT030 OVC050
     FM260300 03004KT 3SM -RA BR BKN012 OVC040
     FM261000 02007KT P6SM OVC050=



000
FTUS41 KAKQ 252326
TAFRIC
TAF
KRIC 252326Z 2600/2624 06005KT 4SM -RA BR OVC005
      TEMPO 2600/2603 2SM -RA BR OVC003
     FM260700 04009KT 3SM -RA BR OVC004
     FM261300 02007KT P6SM OVC015
     FM261500 02008KT P6SM OVC040=



000
FTUS41 KAKQ 252326
TAFECG
TAF
KECG 252326Z 2600/2624 07008KT 4SM -RA BR OVC020
      TEMPO 2600/2603 3SM -RA OVC008
     FM260300 03007KT 4SM -RA OVC007
     FM261000 02013KT 5SM -RA BR OVC008
     FM261500 02014KT P6SM OVC018
     FM262000 02012KT P6SM BKN025=



000
FTUS41 KAKQ 252326
TAFSBY
TAF
KSBY 252326Z 2600/2624 16003KT 4SM -RA BR SCT030 OVC050
     FM260300 03004KT 3SM -RA BR BKN012 OVC040
     FM261000 02007KT P6SM OVC050=



000
FTUS41 KAKQ 252326
TAFPHF
TAF
KPHF 252326Z 2600/2624 09007KT 3SM -RA BR OVC005
      TEMPO 2600/2601 2SM -RA BR
     FM261400 04008KT P6SM OVC015
     FM261700 03010KT P6SM BKN040=



000
FTUS41 KAKQ 252326
TAFORF
TAF
KORF 252326Z 2600/2624 09007KT 3SM -RA BR OVC006
     FM260200 07006KT 4SM -RA BR OVC005
     FM261000 05010KT 3SM -RA BR OVC005
     FM261500 03014KT P6SM OVC015
     FM261800 04014KT P6SM BKN040=



000
FTUS41 KAKQ 252326
TAFRIC
TAF
KRIC 252326Z 2600/2624 06005KT 4SM -RA BR OVC005
      TEMPO 2600/2603 2SM -RA BR OVC003
     FM260700 04009KT 3SM -RA BR OVC004
     FM261300 02007KT P6SM OVC015
     FM261500 02008KT P6SM OVC040=



000
FTUS41 KAKQ 252032 AAB
TAFPHF
TAF AMD
KPHF 252032Z 2521/2618 10005KT 5SM -RA OVC020
      TEMPO 2521/2523 2SM RA BR BKN008
     FM252300 09007KT 4SM -RA BR OVC018
     FM260100 05005KT 4SM -RA BR OVC008
     FM261400 04008KT P6SM -RA OVC015=



000
FTUS41 KAKQ 252029 AAB
TAFRIC
TAF AMD
KRIC 252029Z 2520/2618 04005KT P6SM -RA OVC050
      TEMPO 2520/2522 3SM -RA BR OVC006
     FM252200 03005KT 4SM -RA BR OVC006
     FM260000 06005KT 4SM -RA BR OVC007
     FM260700 04009KT 4SM -RA BR OVC004
     FM261300 02007KT P6SM OVC015=



000
FTUS41 KAKQ 251908 AAA
TAFPHF
TAF AMD
KPHF 251908Z 2519/2618 10005KT P6SM -RA OVC060
      TEMPO 2519/2522 4SM RA BR BKN025 OVC050
     FM252200 09007KT 4SM -RA BR OVC025
     FM260100 05005KT 4SM -RA BR OVC008
     FM261400 04008KT P6SM -RA OVC015=



000
FTUS41 KAKQ 251907 AAA
TAFORF
TAF AMD
KORF 251907Z 2519/2618 09006KT P6SM -RA BKN050 OVC080
      TEMPO 2519/2523 4SM RA BR SCT025 OVC040
     FM252300 09007KT 4SM -RA BR OVC025
     FM260200 07006KT 4SM -RA BR OVC008
     FM261000 05010KT 5SM -RA BR OVC008
     FM261500 03014KT P6SM OVC015=



000
FTUS41 KAKQ 251904 AAA
TAFRIC
TAF AMD
KRIC 251904Z 2519/2618 05005KT P6SM -RA OVC050
      TEMPO 2519/2522 4SM -RA BR OVC015
     FM252200 03005KT 4SM -RA BR OVC015
     FM260000 06005KT 4SM -RA BR OVC007
     FM260700 04009KT 4SM -RA BR OVC004
     FM261300 02007KT P6SM OVC015=



000
FTUS41 KAKQ 251904 AAA
TAFRIC
TAF AMD
KRIC 251904Z 2519/2618 05005KT P6SM -RA OVC050
      TEMPO 2519/2522 4SM -RA BR OVC015
     FM252200 03005KT 4SM -RA BR OVC015
     FM260000 06005KT 4SM -RA BR OVC007
     FM260700 04009KT 4SM -RA BR OVC004
     FM261300 02007KT P6SM OVC015=



000
FTUS41 KAKQ 251740
TAFRIC
TAF
KRIC 251740Z 2518/2618 07005KT P6SM -RA OVC050
     FM252100 08004KT 4SM -RA BR SCT020 OVC040
     FM252200 07005KT 4SM -RA BR OVC020
     FM260000 06005KT 4SM -RA BR OVC007
     FM260700 04009KT 4SM -RA BR OVC004
     FM261300 02007KT P6SM OVC015=



000
FTUS41 KAKQ 251740
TAFECG
TAF
KECG 251740Z 2518/2618 09007KT P6SM OVC080
     FM252000 10007KT P6SM -RA OVC025
     FM252200 11006KT 3SM -RA OVC015
     FM260000 07008KT 4SM -RA BR OVC006
     FM260600 03007KT P6SM -RA OVC008
     FM261000 02013KT 5SM -RA BR OVC008=



000
FTUS41 KAKQ 251740
TAFPHF
TAF
KPHF 251740Z 2518/2618 10005KT P6SM -RA OVC060
     FM252200 09007KT 4SM -RA BR OVC025
     FM260100 05005KT 4SM -RA BR OVC008
     FM261400 04008KT P6SM -RA OVC015=



000
FTUS41 KAKQ 251740
TAFORF
TAF
KORF 251740Z 2518/2618 09006KT P6SM -RA SCT050 OVC080
     FM252000 09009KT P6SM -RA OVC050
     FM252300 09007KT 4SM -RA BR OVC025
     FM260200 07006KT 4SM -RA BR OVC008
     FM261000 05010KT 5SM -RA BR OVC008
     FM261500 03014KT P6SM OVC015=



000
FTUS41 KAKQ 251740
TAFSBY
TAF
KSBY 251740Z 2518/2618 VRB03KT P6SM OVC080
     FM252100 19006KT P6SM -RA BKN050 OVC080
     FM260000 16003KT 5SM -RA BR SCT030 OVC050
     FM260300 03004KT 4SM -RA BR BKN025 OVC040
     FM261000 01007KT P6SM OVC050=



000
FTUS41 KAKQ 251629 AAA
TAFECG
TAF AMD
KECG 251629Z 2516/2612 09007KT P6SM OVC100
     FM252000 10007KT P6SM -RA SCT050 OVC080
     FM252200 11006KT P6SM -RA SCT015 OVC040
     FM260100 04006KT 4SM -RA BR OVC005=



000
FTUS41 KAKQ 251627 AAA
TAFPHF
TAF AMD
KPHF 251627Z 2516/2612 10005KT P6SM -RA SCT050 OVC080
     FM252000 10006KT P6SM -RA OVC050
     FM252200 09007KT 4SM -RA BR SCT009 OVC020
     FM260100 05005KT 4SM -RA BR OVC005=



000
FTUS41 KAKQ 251625 AAA
TAFORF
TAF AMD
KORF 251625Z 2516/2612 07006KT P6SM -RA SCT050 OVC080
     FM252000 09009KT P6SM -RA OVC050
     FM252300 09007KT 4SM -RA BR SCT007 OVC015
     FM260200 07006KT 4SM -RA BR OVC005=



000
FTUS41 KAKQ 251623 AAA
TAFSBY
TAF AMD
KSBY 251623Z 2516/2612 VRB04KT P6SM OVC100
     FM251800 20005KT P6SM -RA OVC080
     FM252300 16003KT 5SM -RA BR SCT015 OVC025
     FM260200 03004KT 4SM -RA BR BKN007 OVC015=



000
FTUS41 KAKQ 251621 AAA
TAFRIC
TAF AMD
KRIC 251621Z 2516/2612 10007KT P6SM -RA SCT050 OVC080
     FM251800 07005KT P6SM -RA OVC050
     FM252100 08004KT 4SM -RA BR SCT009 OVC020
     FM260000 06005KT 4SM -RA BR OVC007
     FM260700 04009KT 4SM -RA BR OVC004=



000
FTUS41 KAKQ 251621 AAA
TAFRIC
TAF AMD
KRIC 251621Z 2516/2612 10007KT P6SM -RA SCT050 OVC080
     FM251800 07005KT P6SM -RA OVC050
     FM252100 08004KT 4SM -RA BR SCT009 OVC020
     FM260000 06005KT 4SM -RA BR OVC007
     FM260700 04009KT 4SM -RA BR OVC004=



000
FTUS41 KAKQ 251155 RRB
TAFRIC
TAF
KRIC 251155Z 2512/2612 05005KT P6SM OVC100
     FM251500 09005KT P6SM OVC050
     FM251900 10004KT 4SM -RA BR SCT009 OVC020
     FM260000 06005KT 4SM -RA BR OVC005=



000
FTUS41 KAKQ 251155 RRB
TAFECG
TAF
KECG 251155Z 2512/2612 09007KT P6SM OVC120
     FM251700 10007KT P6SM OVC050
     FM252100 11006KT 4SM -RA BR SCT007 OVC015
     FM260000 08006KT 4SM -RA BR OVC005=



000
FTUS41 KAKQ 251155 RRB
TAFORF
TAF
KORF 251155Z 2512/2612 06003KT P6SM OVC120
     FM251700 08007KT P6SM OVC050
     FM252100 10007KT 4SM -RA BR SCT007 OVC015
     FM260000 07006KT 4SM -RA BR OVC005=



000
FTUS41 KAKQ 251155 RRB
TAFPHF
TAF
KPHF 251155Z 2512/2612 06005KT P6SM OVC120
     FM251700 11006KT P6SM OVC050
     FM252100 11007KT 4SM -RA BR SCT009 OVC018
     FM260000 07005KT 4SM -RA BR OVC005=



000
FTUS41 KAKQ 251155 RRB
TAFPHF
TAF
KPHF 251155Z 2512/2612 06005KT P6SM OVC120
     FM251700 11006KT P6SM OVC050
     FM252100 11007KT 4SM -RA BR SCT009 OVC018
     FM260000 07005KT 4SM -RA BR OVC005=



000
FTUS41 KAKQ 251155 RRB
TAFECG
TAF
KECG 251155Z 2512/2612 09007KT P6SM OVC120
     FM251700 10007KT P6SM OVC050
     FM252100 11006KT 4SM -RA BR SCT007 OVC015
     FM260000 08006KT 4SM -RA BR OVC005=



000
FTUS41 KAKQ 251155 RRB
TAFORF
TAF
KORF 251155Z 2512/2612 06003KT P6SM OVC120
     FM251700 08007KT P6SM OVC050
     FM252100 10007KT 4SM -RA BR SCT007 OVC015
     FM260000 07006KT 4SM -RA BR OVC005=



000
FTUS41 KAKQ 251155 RRB
TAFRIC
TAF
KRIC 251155Z 2512/2612 05005KT P6SM OVC100
     FM251500 09005KT P6SM OVC050
     FM251900 10004KT 4SM -RA BR SCT009 OVC020
     FM260000 06005KT 4SM -RA BR OVC005=



000
FTUS41 KAKQ 251155 RRB
TAFSBY
TAF
KSBY 251155Z 2512/2612 07005KT P6SM OVC120
     FM251800 20005KT P6SM OVC060
     FM252300 16003KT 5SM -RA BR SCT015 OVC025
     FM260200 03004KT 4SM -RA BR BKN007 OVC015=



000
FTUS41 KAKQ 251155 RRB
TAFSBY
TAF
KSBY 251155Z 2512/2612 07005KT P6SM OVC120
     FM251800 20005KT P6SM OVC060
     FM252300 16003KT 5SM -RA BR SCT015 OVC025
     FM260200 03004KT 4SM -RA BR BKN007 OVC015=



000
FTUS41 KAKQ 250543 RRA
TAFECG
TAF
KECG 250543Z 2506/2606 13005KT P6SM OVC200
     FM251200 04007KT P6SM SCT120
     FM251700 10006KT P6SM OVC050
     FM252100 11006KT 4SM -RA BR SCT007 OVC015
     FM260000 08006KT 4SM -RA BR OVC005=



000
FTUS41 KAKQ 250543 RRA
TAFORF
TAF
KORF 250543Z 2506/2606 10005KT P6SM OVC200
     FM251200 05007KT P6SM SCT120
     FM251700 08007KT P6SM OVC050
     FM252100 10007KT 4SM -RA BR SCT007 OVC015
     FM260000 07006KT 4SM -RA BR OVC005=



000
FTUS41 KAKQ 250543 RRA
TAFPHF
TAF
KPHF 250543Z 2506/2606 06004KT P6SM OVC200
     FM251200 06005KT P6SM BKN150
     FM251700 11006KT P6SM OVC060
     FM252100 11007KT 4SM -RA BR SCT009 OVC018
     FM260000 07005KT 4SM -RA BR OVC005=



000
FTUS41 KAKQ 250543 RRA
TAFRIC
TAF
KRIC 250543Z 2506/2606 05004KT P6SM OVC200
     FM251200 07005KT P6SM BKN100
     FM251500 11005KT P6SM BKN050 OVC100
     FM251900 14004KT 4SM -RA BR SCT009 OVC020
     FM260000 07005KT 4SM -RA BR OVC005=



000
FTUS41 KAKQ 250543 RRA
TAFSBY
TAF
KSBY 250543Z 2506/2606 34003KT P6SM BKN250
     FM251200 32005KT P6SM BKN150
     FM251800 25005KT P6SM BKN080
     FM252300 16003KT 5SM -RA BR SCT015 OVC025
     FM260200 03004KT 4SM -RA BR BKN007 OVC015=



000
FTUS41 KAKQ 242341
TAFSBY
TAF
KSBY 242341Z 2500/2524 29008KT P6SM SKC
     FM250400 31003KT P6SM SCT250
     FM251300 32006KT P6SM SCT100 BKN150
     FM251700 28007KT P6SM BKN080
     FM252200 16004KT 5SM -RA BR SCT012 BKN025=



000
FTUS41 KAKQ 242341
TAFPHF
TAF
KPHF 242341Z 2500/2524 29005KT P6SM SCT250
     FM251000 02003KT P6SM SCT100 BKN150
     FM251500 07005KT P6SM SCT050 OVC090
     FM252000 15007KT 4SM -RA SCT009 BKN018=



000
FTUS41 KAKQ 242341
TAFRIC
TAF
KRIC 242341Z 2500/2524 29006KT P6SM SCT250
     FM250800 02003KT P6SM BKN100
     FM251500 11003KT P6SM BKN050 OVC100
     FM251900 16005KT 3SM -RA SCT009 BKN018=



000
FTUS41 KAKQ 242341
TAFPHF
TAF
KPHF 242341Z 2500/2524 29005KT P6SM SCT250
     FM251000 02003KT P6SM SCT100 BKN150
     FM251500 07005KT P6SM SCT050 OVC090
     FM252000 15007KT 4SM -RA SCT009 BKN018=



000
FTUS41 KAKQ 242341
TAFORF
TAF
KORF 242341Z 2500/2524 28004KT P6SM SCT250
     FM250600 02005KT P6SM OVC250
     FM251300 05006KT P6SM SCT120 OVC200
     FM251700 06005KT P6SM OVC050
     FM252100 11007KT 3SM -RA BR SCT007 BKN015=



000
FTUS41 KAKQ 242341
TAFORF
TAF
KORF 242341Z 2500/2524 28004KT P6SM SCT250
     FM250600 02005KT P6SM OVC250
     FM251300 05006KT P6SM SCT120 OVC200
     FM251700 06005KT P6SM OVC050
     FM252100 11007KT 3SM -RA BR SCT007 BKN015=



000
FTUS41 KAKQ 242341
TAFECG
TAF
KECG 242341Z 2500/2524 26005KT P6SM SCT250
     FM250400 VRB03KT P6SM BKN250
     FM251200 03004KT P6SM SCT100 OVC150
     FM251700 10005KT P6SM SCT045 OVC090
     FM252000 11006KT 4SM -RA BR SCT006 OVC012=



000
FTUS41 KAKQ 242341
TAFRIC
TAF
KRIC 242341Z 2500/2524 29006KT P6SM SCT250
     FM250800 02003KT P6SM BKN100
     FM251500 11003KT P6SM BKN050 OVC100
     FM251900 16005KT 3SM -RA SCT009 BKN018=



000
FTUS41 KAKQ 242341
TAFSBY
TAF
KSBY 242341Z 2500/2524 29008KT P6SM SKC
     FM250400 31003KT P6SM SCT250
     FM251300 32006KT P6SM SCT100 BKN150
     FM251700 28007KT P6SM BKN080
     FM252200 16004KT 5SM -RA BR SCT012 BKN025=



000
FTUS41 KAKQ 242048 AAA
TAFPHF
TAF AMD
KPHF 242048Z 2421/2518 28015G22KT P6SM FEW250
     FM242300 32003KT P6SM SCT250
     FM250900 03004KT P6SM BKN250
     FM251600 08004KT P6SM SCT100 OVC250=



000
FTUS41 KAKQ 241728
TAFRIC
TAF
KRIC 241728Z 2418/2518 29010G17KT P6SM SCT060
     FM242200 27005KT P6SM SCT250
     FM250800 02004KT P6SM BKN250
     FM251500 16005KT P6SM BKN100 OVC250=



000
FTUS41 KAKQ 241728
TAFECG
TAF
KECG 241728Z 2418/2518 31011G20KT P6SM SKC
     FM242100 33007KT P6SM SCT250
     FM250100 VRB03KT P6SM SCT250
     FM251200 03006KT P6SM SCT100 OVC250=



000
FTUS41 KAKQ 241728
TAFPHF
TAF
KPHF 241728Z 2418/2518 30012G20KT P6SM SKC
     FM242000 30009KT P6SM SCT250
     FM250000 32003KT P6SM SCT250
     FM250900 03004KT P6SM BKN250
     FM251600 08004KT P6SM SCT100 OVC250=



000
FTUS41 KAKQ 241728
TAFSBY
TAF
KSBY 241728Z 2418/2518 31015G23KT P6SM SCT060
     FM242200 29011KT P6SM SCT100
     FM250100 32004KT P6SM SCT250
     FM251500 30008KT P6SM SCT100 OVC250=



000
FTUS41 KAKQ 241728
TAFORF
TAF
KORF 241728Z 2418/2518 30010G18KT P6SM FEW040
     FM242000 31008KT P6SM FEW040
     FM242300 28004KT P6SM SCT250
     FM250800 03008KT P6SM OVC250
     FM251600 07006KT P6SM SCT100 OVC250=



000
FTUS41 KAKQ 241609 AAB
TAFORF
TAF AMD
KORF 241609Z 2416/2512 32010G18KT P6SM FEW040
     FM241900 31008KT P6SM FEW040
     FM242300 28004KT P6SM SCT250=



000
FTUS41 KAKQ 241313 AAA
TAFORF
TAF AMD
KORF 241313Z 2413/2512 36014G21KT P6SM SKC
     FM241800 33010G18KT P6SM FEW040
     FM242200 28006KT P6SM SCT250=



000
FTUS41 KAKQ 241313 AAA
TAFORF
TAF AMD
KORF 241313Z 2413/2512 36014G21KT P6SM SKC
     FM241800 33010G18KT P6SM FEW040
     FM242200 28006KT P6SM SCT250=



000
FTUS41 KAKQ 241310 AAA
TAFPHF
TAF AMD
KPHF 241310Z 2413/2512 35010G17KT P6SM SKC
     FM241600 31012G20KT P6SM SKC
     FM242000 29010KT P6SM SKC
     FM250000 27005KT P6SM SCT250=



000
FTUS41 KAKQ 241310 AAA
TAFPHF
TAF AMD
KPHF 241310Z 2413/2512 35010G17KT P6SM SKC
     FM241600 31012G20KT P6SM SKC
     FM242000 29010KT P6SM SKC
     FM250000 27005KT P6SM SCT250=



000
FTUS41 KAKQ 241308 AAA
TAFRIC
TAF AMD
KRIC 241308Z 2413/2512 36013KT P6SM SKC
     FM241600 31010G18KT P6SM SKC
     FM241800 28013G20KT P6SM SCT060
     FM242200 27005KT P6SM SCT250=



000
FTUS41 KAKQ 241308 AAA
TAFRIC
TAF AMD
KRIC 241308Z 2413/2512 36013KT P6SM SKC
     FM241600 31010G18KT P6SM SKC
     FM241800 28013G20KT P6SM SCT060
     FM242200 27005KT P6SM SCT250=



000
FTUS41 KAKQ 241120
TAFRIC
TAF
KRIC 241120Z 2412/2512 34007KT P6SM SCT090
     FM241400 34011G18KT P6SM SCT090
     FM241800 28014G22KT P6SM SCT060
     FM242200 27005KT P6SM SCT250=



000
FTUS41 KAKQ 241120
TAFSBY
TAF
KSBY 241120Z 2412/2512 32011G20KT P6SM BKN060
     FM241400 31017G27KT P6SM SCT060
     FM242200 29011KT P6SM SCT100
     FM250300 28004KT P6SM SCT250=



000
FTUS41 KAKQ 241120
TAFORF
TAF
KORF 241120Z 2412/2512 36010G18KT P6SM SKC
     FM241400 32014G21KT P6SM FEW050
     FM242200 28006KT P6SM SCT250=



000
FTUS41 KAKQ 241120
TAFORF
TAF
KORF 241120Z 2412/2512 36010G18KT P6SM SKC
     FM241400 32014G21KT P6SM FEW050
     FM242200 28006KT P6SM SCT250=



000
FTUS41 KAKQ 241120
TAFECG
TAF
KECG 241120Z 2412/2512 34010G18KT P6SM SKC
     FM241500 31011G20KT P6SM SKC
     FM242200 27005KT P6SM SCT250=



000
FTUS41 KAKQ 241120
TAFPHF
TAF
KPHF 241120Z 2412/2512 34010G17KT P6SM SKC
     FM241400 30012G20KT P6SM FEW060
     FM242200 27005KT P6SM SCT250=



000
FTUS41 KAKQ 241120
TAFECG
TAF
KECG 241120Z 2412/2512 34010G18KT P6SM SKC
     FM241500 31011G20KT P6SM SKC
     FM242200 27005KT P6SM SCT250=



000
FTUS41 KAKQ 241120
TAFRIC
TAF
KRIC 241120Z 2412/2512 34007KT P6SM SCT090
     FM241400 34011G18KT P6SM SCT090
     FM241800 28014G22KT P6SM SCT060
     FM242200 27005KT P6SM SCT250=



000
FTUS41 KAKQ 241120
TAFPHF
TAF
KPHF 241120Z 2412/2512 34010G17KT P6SM SKC
     FM241400 30012G20KT P6SM FEW060
     FM242200 27005KT P6SM SCT250=



000
FTUS41 KAKQ 241120
TAFSBY
TAF
KSBY 241120Z 2412/2512 32011G20KT P6SM BKN060
     FM241400 31017G27KT P6SM SCT060
     FM242200 29011KT P6SM SCT100
     FM250300 28004KT P6SM SCT250=



    US Dept of Commerce
    National Oceanic and Atmospheric Administration
    National Weather Service
    1325 East West Highway
    Silver Spring, MD 20910
    Page Author: NWS Internet Services Team
Disclaimer
Information Quality
Credits
Glossary
Privacy Policy
Freedom of Information Act (FOIA)
About Us
Career Opportunities